Last Month

Pierce College

Hourly Data | America/Los_Angeles
as of 3/3/21 4:48 PM PST
Date & Time Temp Max (°F) Temp Min (°F) RH (%) Dew Pt (°F) Latest Rain (In) Soil Temp (°F) Soil Moist (%) Wind Spd (mph) Wind Dir (°) Wind Gust (mph) Leaf Wet Raw (mV) Net Radiation (W/m²) Evap Pan Max Wind (mph) Evap Pan H2O Max Temp (°F) Evap Pan Level (In)
2/28/21 - 2300 50.9 47.1 18 7.1 0.00 60.9 44.5 1.1 SSE | 162 3.2 263 -73 1.9 39.0 3.7
2/28/21 - 2200 56.1 49.5 14 4.8 0.00 61.0 44.5 1.1 SSE | 167 3.6 262 -76 2.6 40.8 3.7
2/28/21 - 2100 56.1 54.5 12 3.1 0.00 59.0 44.6 1.1 SSE | 155 4.9 262 -81 2.3 46.8 3.7
2/28/21 - 2000 60.6 54.4 11 3.0 0.00 60.9 44.6 1.5 SE | 134 6.1 262 -88 3.4 54.2 3.7
2/28/21 - 1900 62.4 60.6 9 1.9 0.00 58.9 44.6 2.5 N | 1 7.9 262 -95 4.8 57.6 3.7
2/28/21 - 1800 65.2 62.2 8 2.1 0.00 59.6 44.6 3.8 N | 3 10.8 262 -82 4.6 65.9 3.7
2/28/21 - 1700 66.8 65.0 8 2.8 0.00 59.3 44.5 4.2 N | 356 12.5 261 44 5.2 70.1 3.7
2/28/21 - 1600 68.0 66.4 8 3.6 0.00 59.4 44.4 4.6 N | 357 12.3 262 194 5.9 73.0 3.7
2/28/21 - 1500 68.4 66.7 8 4.4 0.00 59.0 44.3 4.6 N | 5 15.8 261 330 6.8 73.3 3.7
2/28/21 - 1400 67.9 65.6 9 5.2 0.00 59.0 44.2 5.8 N | 359 14.7 261 415 7.3 73.3 3.7
2/28/21 - 1300 66.4 63.9 10 6.5 0.00 59.4 44.1 6.2 N | 3 15.2 261 464 8.7 73.1 3.7
2/28/21 - 1200 64.5 61.6 11 7.2 0.00 59.4 44.1 6.2 N | 5 16.5 261 457 8.9 72.5 3.7
2/28/21 - 1100 62.4 59.4 12 7.6 0.00 59.6 44.1 6.2 N | 7 15.5 261 407 7.6 69.6 3.7
2/28/21 - 1000 59.7 58.4 13 8.2 0.00 60.0 44.2 6.6 N | 7 20.4 261 309 11.1 65.6 3.7
2/28/21 - 0900 58.7 56.7 14 8.3 0.00 59.6 44.2 6.4 N | 8 16.2 261 214 7.6 61.8 3.7
2/28/21 - 0800 56.8 54.4 15 8.3 0.00 58.6 44.4 5.8 N | 6 16.4 262 21 7.4 55.6 3.7
2/28/21 - 0700 54.9 53.9 15 7.7 0.00 59.4 44.4 5.9 N | 8 17.5 263 -81 5.7 51.4 3.7
2/28/21 - 0600 55.5 54.4 15 7.4 0.00 60.4 44.5 5.9 N | 6 15.6 263 -88 6.1 52.5 3.7
2/28/21 - 0500 56.3 55.1 14 6.8 0.00 60.5 44.5 5.2 N | 5 14.8 262 -88 5.9 52.7 3.7
2/28/21 - 0400 57.7 56.1 13 5.9 0.00 60.7 44.6 5.2 N | 6 15.8 262 -88 7.5 52.9 3.7
2/28/21 - 0300 58.1 57.4 12 6.0 0.00 60.9 44.7 4.4 N | 3 10.7 262 -86 5.7 52.4 3.7
2/28/21 - 0200 57.6 55.9 17 12.1 0.00 60.8 44.7 3.3 N | 359 9.3 263 -84 3.5 51.4 3.7
2/28/21 - 0100 56.8 55.5 24 19.8 0.00 61.2 44.7 1.7 NNE | 15 6.1 263 -80 5.9 49.8 3.7
2/28/21 - 0000 56.9 56.0 26 21.9 0.00 61.0 44.8 1.7 NW | 325 8.3 264 -80 7.6 51.6 3.7
2/27/21 - 2300 56.7 55.5 24 19.9 0.00 60.3 44.8 1.4 NW | 318 8.9 263 -78 4.9 50.4 3.7
2/27/21 - 2200 57.3 56.0 24 19.6 0.00 59.8 44.8 1.8 NW | 307 8.0 263 -81 5.7 50.0 3.7
2/27/21 - 2100 57.9 56.3 21 17.6 0.00 58.7 44.9 3.6 SSW | 204 13.2 263 -85 10.0 50.6 3.7
2/27/21 - 2000 58.9 56.1 20 17.4 0.00 58.9 44.9 2.5 WSW | 238 7.1 263 -91 6.5 54.8 3.7
2/27/21 - 1900 61.4 58.6 16 13.9 0.00 58.9 44.9 3.2 N | 351 11.3 262 -99 7.2 57.6 3.7
2/27/21 - 1800 63.4 61.4 14 12.8 0.00 58.5 44.9 3.4 N | 358 11.4 262 -87 5.0 64.5 3.7
2/27/21 - 1700 66.8 63.3 17 18.8 0.00 58.0 44.8 4.2 N | 356 13.8 262 42 6.6 72.7 3.7
2/27/21 - 1600 70.4 66.6 15 18.8 0.00 60.3 44.7 4.1 N | 358 13.9 262 194 7.5 77.1 3.7
2/27/21 - 1500 72.0 69.4 11 13.1 0.00 60.2 44.6 4.4 N | 3 12.8 262 320 6.9 79.4 3.8
2/27/21 - 1400 72.0 69.8 11 13.0 0.00 59.7 44.5 4.2 N | 356 14.2 261 411 8.4 78.3 3.8
2/27/21 - 1300 71.4 68.3 14 18.7 0.00 59.5 44.4 3.0 N | 355 11.9 261 458 7.5 77.6 3.8
2/27/21 - 1200 68.9 66.9 18 22.4 0.00 59.4 44.4 5.1 N | 8 14.2 262 456 7.7 76.5 3.7
2/27/21 - 1100 68.2 63.7 23 27.2 0.00 59.5 44.2 3.6 N | 7 12.0 262 404 6.3 74.2 3.7
2/27/21 - 1000 64.2 61.6 24 25.9 0.00 61.8 44.4 4.6 N | 6 10.8 262 316 5.5 71.9 3.7
2/27/21 - 0900 61.7 60.0 28 27.1 0.00 59.7 44.5 2.4 N | 7 9.7 262 205 4.8 63.1 3.7
2/27/21 - 0800 60.6 56.6 28 25.5 0.00 60.0 44.6 1.9 N | 350 8.3 264 18 9.5 54.3 3.7
2/27/21 - 0700 57.2 56.1 29 24.3 0.00 60.1 44.6 3.5 N | 6 14.2 264 -72 6.6 51.4 3.7
2/27/21 - 0600 57.1 51.6 27 21.5 0.00 60.2 44.6 2.7 N | 1 11.3 264 -74 6.1 50.2 3.7
2/27/21 - 0500 52.9 48.9 31 21.2 0.00 60.4 44.8 1.4 SSE | 157 4.4 265 -67 2.8 39.0 3.7
2/27/21 - 0400 53.0 43.5 33 21.0 0.00 60.6 44.8 1.1 SSE | 162 3.9 265 -64 3.4 37.8 3.7
2/27/21 - 0300 44.8 42.8 41 21.4 0.00 60.8 44.8 0.7 SSE | 160 2.3 266 -62 2.2 34.9 3.7
2/27/21 - 0200 44.3 42.3 44 22.4 0.00 61.1 44.9 1.0 SSE | 155 3.9 266 -64 2.8 35.0 3.7
2/27/21 - 0100 46.0 44.0 39 21.5 0.00 61.3 45.0 0.5 S | 176 2.3 266 -65 1.6 34.5 3.7
2/27/21 - 0000 47.4 46.0 38 22.6 0.00 61.3 45.1 0.7 SSE | 159 2.5 265 -66 2.5 36.0 3.7
2/26/21 - 2300 49.6 46.5 37 23.4 0.00 61.4 45.1 0.6 S | 176 2.3 265 -68 1.2 36.3 3.7
2/26/21 - 2200 50.9 49.3 36 24.3 0.00 61.5 45.2 0.6 SSE | 158 2.0 264 -71 1.8 38.7 3.7
2/26/21 - 2100 54.5 50.4 37 26.7 0.00 61.3 45.2 0.7 SSE | 164 2.4 264 -72 1.4 42.0 3.7
2/26/21 - 2000 58.1 53.8 34 27.8 0.00 61.4 45.3 0.9 SSE | 165 3.5 264 -77 2.6 48.0 3.7
2/26/21 - 1900 64.7 58.0 27 26.4 0.00 61.2 45.3 0.6 SSE | 161 2.6 264 -84 1.7 57.5 3.7
2/26/21 - 1800 72.0 64.7 16 21.5 0.00 59.4 45.2 1.1 NW | 310 6.4 263 -82 4.9 72.7 3.7
2/26/21 - 1700 74.4 71.3 16 24.1 0.00 60.7 45.1 3.3 SSW | 213 7.5 262 35 5.6 79.8 3.7
2/26/21 - 1600 76.5 73.9 13 21.3 0.00 60.4 44.9 4.7 SW | 217 9.6 262 185 7.1 84.8 3.8
2/26/21 - 1500 78.0 75.8 11 18.9 0.00 59.9 44.8 4.0 SSE | 165 8.6 262 305 7.2 86.0 3.7
2/26/21 - 1400 80.1 77.2 10 16.6 0.00 58.5 44.6 1.7 WNW | 286 5.3 260 387 4.2 84.7 3.7
2/26/21 - 1300 79.3 75.0 10 15.0 0.00 57.6 44.5 1.5 N | 10 4.3 260 442 3.7 84.1 3.7
2/26/21 - 1200 75.5 72.0 10 13.9 0.00 59.2 44.3 1.6 ENE | 58 5.5 260 442 3.8 83.9 3.7
2/26/21 - 1100 72.6 68.6 10 10.9 0.00 59.2 44.3 1.6 E | 98 6.0 260 396 3.6 79.8 3.7
2/26/21 - 1000 69.8 62.4 11 10.2 0.00 58.8 44.4 1.5 E | 86 4.5 260 312 3.3 74.6 3.7
2/26/21 - 0900 62.8 54.2 18 14.9 0.00 59.5 44.6 1.1 E | 90 3.3 260 211 2.2 62.7 3.7
2/26/21 - 0800 54.7 41.7 34 20.4 0.00 59.8 44.7 0.5 SE | 139 2.0 265 23 1.5 43.0 3.7
2/26/21 - 0700 42.5 40.9 38 18.0 0.00 60.1 44.7 0.3 SSE | 167 2.2 265 -57 1.4 31.4 3.7
2/26/21 - 0600 48.4 42.3 32 16.6 0.00 59.9 44.8 0.9 SSE | 165 2.8 265 -67 2.2 35.9 3.7
2/26/21 - 0500 55.5 44.4 21 11.9 0.00 59.3 44.9 1.1 SSE | 150 5.2 264 -68 3.2 39.9 3.7
2/26/21 - 0400 49.1 45.2 23 11.0 0.00 59.0 45.0 1.2 SSE | 164 5.2 264 -70 3.9 38.9 3.7
2/26/21 - 0300 50.3 46.8 21 10.3 0.00 60.7 45.0 1.6 SSE | 165 5.6 263 -72 3.8 39.7 3.7
2/26/21 - 0200 59.3 49.8 14 6.6 0.00 59.1 45.1 1.4 S | 170 5.6 263 -79 4.1 45.4 3.7
2/26/21 - 0100 58.9 54.5 10 0.8 0.00 59.0 45.2 2.5 SW | 224 11.0 262 -85 5.1 53.8 3.7
2/26/21 - 0000 59.0 54.0 7 -5.3 0.00 60.5 45.2 3.0 SSW | 210 12.8 262 -84 8.7 52.4 3.7
2/25/21 - 2300 59.6 56.8 7 -6.6 0.00 61.1 45.2 2.1 W | 263 6.6 262 -89 5.7 52.8 3.7
2/25/21 - 2200 59.6 58.0 7 -5.5 0.00 61.0 45.3 2.0 NNE | 12 10.4 262 -90 4.6 53.7 3.7
2/25/21 - 2100 60.3 57.4 7 -4.8 0.00 61.0 45.3 1.2 N | 7 6.5 262 -89 4.6 53.5 3.7
2/25/21 - 2000 61.3 59.6 7 -5.0 0.00 61.2 45.3 1.6 N | 5 7.4 262 -88 6.6 55.2 3.7
2/25/21 - 1900 63.2 61.1 6 -4.7 0.00 60.8 45.3 1.5 NNW | 340 6.3 262 -96 5.4 57.2 3.7
2/25/21 - 1800 66.4 63.1 6 -4.9 0.00 60.8 45.4 2.4 NW | 326 10.5 261 -88 7.0 66.7 3.7
2/25/21 - 1700 67.4 66.2 5 -4.6 0.00 60.9 45.3 3.7 N | 3 12.1 261 38 4.3 70.8 3.7
2/25/21 - 1600 68.2 66.9 5 -4.0 0.00 60.4 45.2 5.1 N | 5 14.1 261 190 6.0 73.5 3.7
2/25/21 - 1500 68.6 67.0 6 -2.4 0.00 60.2 45.1 4.8 N | 6 14.3 261 317 6.3 74.4 3.7
2/25/21 - 1400 68.3 65.6 6 -2.7 0.00 60.1 45.1 5.8 N | 7 12.9 260 412 6.8 74.1 3.7
2/25/21 - 1300 65.9 63.5 6 -3.2 0.00 60.1 45.0 7.1 N | 9 15.3 261 470 7.1 71.6 3.7
2/25/21 - 1200 63.9 61.6 6 -4.2 0.00 60.0 44.9 7.4 N | 7 17.7 261 469 9.4 71.0 3.7
2/25/21 - 1100 62.0 59.7 7 -4.8 0.00 60.0 45.0 7.9 N | 8 22.6 260 415 10.0 68.9 3.7
2/25/21 - 1000 60.0 58.0 7 -4.1 0.00 62.5 45.0 8.6 N | 9 27.7 261 321 13.5 66.0 3.7
2/25/21 - 0900 58.6 55.9 9 -1.9 0.00 62.6 45.1 7.1 N | 5 19.2 261 202 9.1 62.0 3.7
2/25/21 - 0800 56.0 53.7 10 -0.4 0.00 60.4 45.2 5.9 N | 3 17.3 262 -6 6.1 53.8 3.7
2/25/21 - 0700 54.2 53.3 11 0.7 0.00 60.6 45.3 5.8 N | 3 17.0 263 -85 6.3 52.4 3.7
2/25/21 - 0600 54.6 53.9 12 2.3 0.00 60.8 45.3 5.9 N | 6 15.4 263 -91 8.5 52.9 3.7
2/25/21 - 0500 55.8 54.4 12 4.0 0.00 60.9 45.4 6.0 N | 6 14.5 263 -90 7.8 53.7 3.7
2/25/21 - 0400 57.6 55.6 12 5.1 0.00 61.1 45.5 6.8 N | 1 15.5 263 -90 6.5 55.1 3.7
2/25/21 - 0300 59.6 57.4 12 5.6 0.00 61.1 45.6 6.4 N | 6 17.7 263 -88 6.7 55.8 3.7
2/25/21 - 0200 61.2 59.4 19 18.2 0.00 61.3 45.6 3.9 N | 358 10.0 264 -86 5.1 56.9 3.7
2/25/21 - 0100 61.6 60.4 24 23.6 0.00 61.2 45.6 4.0 N | 356 10.5 264 -84 5.2 56.8 3.7
2/25/21 - 0000 60.7 56.1 29 25.9 0.00 61.5 45.6 1.6 SE | 134 7.8 264 -76 3.7 51.0 3.7
2/24/21 - 2300 61.8 58.5 26 25.7 0.00 61.5 45.7 2.0 NNE | 22 8.0 264 -85 4.1 53.4 3.7
2/24/21 - 2200 61.7 55.0 27 25.3 0.00 61.5 45.7 1.3 NNE | 25 5.6 265 -80 2.1 49.4 3.7
2/24/21 - 2100 55.7 53.3 47 34.2 0.00 61.5 45.7 1.0 S | 178 3.3 266 -74 3.3 45.5 3.7
2/24/21 - 2000 60.7 55.6 39 33.3 0.00 61.3 45.8 0.9 S | 180 4.2 266 -73 2.5 49.7 3.7
2/24/21 - 1900 65.5 60.5 30 31.7 0.00 61.3 45.8 1.7 SW | 215 3.9 264 -76 2.4 57.1 3.7
2/24/21 - 1800 71.2 65.2 24 29.8 0.00 60.9 45.8 1.6 WSW | 248 5.3 264 -75 3.9 72.6 3.7
2/24/21 - 1700 74.5 71.0 22 31.5 0.00 60.6 45.6 1.7 WNW | 302 7.3 263 34 5.1 78.9 3.8
2/24/21 - 1600 74.8 73.7 24 35.6 0.00 60.3 45.5 3.7 SW | 230 8.5 263 183 6.3 83.0 3.8
2/24/21 - 1500 78.0 73.8 23 35.0 0.00 60.1 45.4 3.6 SSE | 168 8.8 263 299 7.0 84.6 3.7
2/24/21 - 1400 79.0 76.9 18 30.4 0.00 59.6 45.3 2.1 ENE | 63 5.8 262 383 3.6 85.5 3.7
2/24/21 - 1300 78.5 75.6 17 29.1 0.00 59.6 45.0 1.6 NNE | 23 4.8 262 434 4.0 85.7 3.7
2/24/21 - 1200 76.0 72.1 19 29.2 0.00 59.3 44.9 1.4 NNE | 25 4.8 262 436 3.0 85.1 3.7
2/24/21 - 1100 73.1 67.7 25 32.8 0.00 59.5 44.9 1.2 NE | 42 4.6 262 388 2.4 80.3 3.7
2/24/21 - 1000 67.7 60.8 30 33.2 0.00 59.6 45.0 0.6 NNW | 334 3.3 263 306 2.6 73.6 3.7
2/24/21 - 0900 60.8 55.8 39 33.2 0.00 59.9 45.1 0.6 NNE | 15 2.5 264 204 1.6 61.2 3.7
2/24/21 - 0800 55.6 42.3 61 34.8 0.00 60.1 45.2 0.4 SE | 130 1.4 267 10 1.1 45.6 3.7
2/24/21 - 0700 42.6 41.5 69 32.6 0.00 60.1 45.2 0.5 SSE | 160 2.7 269 -51 2.2 34.1 3.7
2/24/21 - 0600 44.2 42.0 64 31.9 0.00 60.4 45.3 0.4 SSE | 166 2.1 269 -57 1.3 33.3 3.7
2/24/21 - 0500 44.6 43.2 62 31.8 0.00 60.7 45.4 0.1 S | 170 1.1 268 -57 0.0 33.8 3.7
2/24/21 - 0400 46.1 44.0 61 32.7 0.00 60.7 45.5 0.3 SSE | 158 1.2 268 -57 0.0 34.3 3.7
2/24/21 - 0300 46.6 45.4 58 32.1 0.00 60.9 45.5 0.3 SSE | 161 1.7 267 -59 1.1 36.1 3.7
2/24/21 - 0200 49.1 46.1 54 32.0 0.00 61.0 45.6 0.4 SSE | 152 2.0 267 -60 0.0 38.2 3.7
2/24/21 - 0100 49.9 48.7 51 32.0 0.00 61.1 45.7 0.6 SSE | 165 2.6 267 -62 1.5 39.5 3.7
2/24/21 - 0000 52.2 49.6 43 29.0 0.00 61.1 45.7 0.3 SSE | 160 1.6 266 -63 0.6 41.9 3.7
2/23/21 - 2300 54.8 52.0 39 28.9 0.00 61.2 45.8 0.5 SSE | 161 2.5 266 -66 0.9 44.6 3.7
2/23/21 - 2200 59.0 54.5 33 28.1 0.00 61.2 45.8 0.7 S | 174 2.1 264 -67 1.4 49.5 3.7
2/23/21 - 2100 63.8 58.4 28 27.2 0.00 61.0 45.8 0.5 S | 169 2.1 264 -62 1.7 57.4 3.7
2/23/21 - 2000 66.7 63.8 22 25.7 0.00 60.8 45.8 1.3 SW | 222 3.9 263 -57 2.7 61.4 3.7
2/23/21 - 1900 69.0 66.7 19 24.3 0.00 58.4 45.8 2.3 SW | 223 6.2 263 -58 5.7 63.8 3.7
2/23/21 - 1800 75.1 68.8 17 24.3 0.00 58.4 45.7 3.0 WSW | 256 6.7 263 -79 5.5 75.2 3.7
2/23/21 - 1700 78.0 75.1 15 25.6 0.00 60.3 45.6 3.4 W | 269 9.4 262 33 7.1 81.2 3.8
2/23/21 - 1600 79.2 76.9 15 26.2 0.00 57.6 45.4 3.3 S | 181 8.2 262 179 6.6 85.4 3.7
2/23/21 - 1500 83.4 78.8 14 26.9 0.00 58.0 45.2 3.0 ESE | 120 8.5 262 297 6.3 87.7 3.7
2/23/21 - 1400 83.1 81.4 13 26.7 0.00 57.1 45.1 1.8 NE | 47 5.5 261 381 3.5 87.3 3.7
2/23/21 - 1300 82.6 80.4 12 25.0 0.00 56.3 44.9 1.8 NNE | 17 5.2 262 431 3.6 88.0 3.7
2/23/21 - 1200 81.6 77.4 12 22.1 0.00 56.5 44.8 2.5 NNE | 12 7.3 262 436 4.8 87.8 3.7
2/23/21 - 1100 77.8 74.6 13 21.9 0.00 57.1 44.8 3.8 N | 10 10.0 262 392 5.0 82.2 3.7
2/23/21 - 1000 75.6 67.4 17 24.3 0.00 56.5 44.8 1.6 W | 275 5.6 261 309 5.3 76.8 3.7
2/23/21 - 0900 67.9 54.8 30 28.9 0.00 57.0 45.0 0.7 E | 85 2.9 262 210 2.5 61.5 3.7
2/23/21 - 0800 54.9 41.3 46 27.9 0.00 58.4 45.1 0.2 E | 94 2.0 266 7 1.3 42.8 3.7
2/23/21 - 0700 41.8 40.7 53 25.7 0.00 58.1 45.1 0.2 S | 178 1.2 267 -52 1.4 29.9 3.7
2/23/21 - 0600 42.7 40.9 52 25.2 0.00 59.7 45.2 0.4 S | 172 2.0 267 -58 1.8 30.5 3.7
2/23/21 - 0500 43.5 42.4 49 25.0 0.00 60.0 45.3 0.1 SSE | 163 1.8 266 -58 0.5 30.9 3.7
2/23/21 - 0400 45.6 43.4 46 24.8 0.00 59.9 45.3 0.1 SSE | 167 1.2 266 -59 0.5 32.8 3.7
2/23/21 - 0300 47.2 44.7 43 24.5 0.00 60.0 45.5 0.2 SSE | 168 1.3 266 -60 0.0 35.0 3.7
2/23/21 - 0200 48.1 46.7 40 24.4 0.00 60.3 45.5 0.3 SSE | 166 1.3 266 -61 1.0 36.8 3.7
2/23/21 - 0100 50.9 48.1 36 23.6 0.00 60.3 45.6 0.1 S | 173 1.2 265 -62 1.1 39.3 3.7
2/23/21 - 0000 53.1 50.4 33 23.4 0.00 60.4 45.6 0.4 SSE | 163 2.1 265 -63 1.9 40.3 3.7
2/22/21 - 2300 54.8 52.6 30 23.0 0.00 60.5 45.7 0.7 SSE | 168 2.4 264 -65 2.0 41.9 3.7
2/22/21 - 2200 56.8 54.4 29 23.4 0.00 60.2 45.7 0.6 SSE | 159 2.1 264 -67 1.7 45.4 3.7
2/22/21 - 2100 59.6 56.1 26 23.3 0.00 60.5 45.7 1.1 SSE | 154 2.9 264 -73 2.2 49.1 3.7
2/22/21 - 2000 67.8 59.4 20 20.9 0.00 60.2 45.7 1.0 SSE | 161 3.0 263 -79 2.4 58.9 3.7
2/22/21 - 1900 71.6 67.9 13 17.3 0.00 60.0 45.7 1.3 N | 352 6.0 262 -92 3.0 64.5 3.7
2/22/21 - 1800 75.3 71.5 12 17.0 0.00 59.8 45.7 2.3 N | 358 6.7 262 -90 7.3 74.5 3.7
2/22/21 - 1700 77.0 75.1 11 17.0 0.00 59.5 45.6 3.6 N | 3 13.3 262 28 7.7 79.2 3.8
2/22/21 - 1600 78.7 77.0 10 16.8 0.00 59.1 45.4 3.1 N | 357 9.6 262 179 6.7 83.7 3.7
2/22/21 - 1500 78.9 77.4 10 16.4 0.00 58.8 45.3 3.8 N | 357 9.4 261 303 4.8 84.1 3.8
2/22/21 - 1400 79.2 77.6 10 16.6 0.00 58.5 45.2 3.5 N | 359 12.1 261 391 5.4 83.9 3.7
2/22/21 - 1300 79.1 75.7 10 17.4 0.00 58.3 45.0 3.0 N | 358 12.2 261 440 6.5 81.4 3.7
2/22/21 - 1200 76.6 73.0 12 17.7 0.00 60.3 44.9 3.6 N | 355 8.8 261 440 5.4 79.8 3.7
2/22/21 - 1100 73.9 70.1 12 17.3 0.00 60.7 44.9 4.2 N | 1 11.9 261 391 4.9 75.6 3.7
2/22/21 - 1000 70.5 67.4 13 17.0 0.00 58.4 45.0 3.9 N | 4 11.4 261 305 4.8 69.3 3.7
2/22/21 - 0900 68.7 65.0 14 17.1 0.00 58.5 45.1 1.9 NW | 313 10.7 262 199 5.5 62.5 3.7
2/22/21 - 0800 65.0 49.5 26 21.0 0.00 58.7 45.1 1.1 SSE | 164 3.3 264 -5 3.4 49.1 3.7
2/22/21 - 0700 49.4 47.9 32 20.1 0.00 59.1 45.1 1.3 SSE | 153 3.1 265 -58 2.4 38.6 3.7
2/22/21 - 0600 49.9 48.2 31 19.5 0.00 59.0 45.2 1.5 SSE | 151 2.8 265 -63 2.4 38.4 3.7
2/22/21 - 0500 49.8 46.5 32 19.4 0.00 59.1 45.3 0.8 SSE | 156 2.3 264 -64 1.9 39.3 3.7
2/22/21 - 0400 60.0 49.4 23 16.5 0.00 59.2 45.4 0.8 SSE | 158 2.5 264 -70 2.6 44.7 3.7
2/22/21 - 0300 62.6 59.9 15 13.1 0.00 59.3 45.4 1.1 N | 9 6.2 263 -77 3.4 48.6 3.7
2/22/21 - 0200 62.4 61.2 14 12.8 0.00 59.3 45.4 1.9 N | 3 7.8 263 -78 3.1 48.6 3.7
2/22/21 - 0100 61.2 54.2 17 13.1 0.00 59.7 45.5 1.2 ENE | 73 4.4 263 -74 2.7 45.5 3.7
2/22/21 - 0000 55.4 51.1 22 15.1 0.00 59.5 45.5 1.3 SSE | 158 3.5 264 -70 2.9 41.6 3.7
2/21/21 - 2300 54.9 51.8 23 16.1 0.00 59.8 45.5 1.6 SSE | 161 4.2 264 -71 3.6 42.0 3.7
2/21/21 - 2200 56.2 53.0 22 16.5 0.00 59.5 45.6 1.6 SSE | 162 4.2 264 -73 3.3 43.1 3.7
2/21/21 - 2100 58.0 54.4 21 16.7 0.00 59.6 45.6 1.5 SSE | 163 3.9 264 -75 3.5 44.1 3.7
2/21/21 - 2000 63.3 57.8 16 13.9 0.00 59.4 45.6 0.8 ESE | 113 5.4 263 -82 2.4 49.7 3.7
2/21/21 - 1900 65.8 62.8 14 13.6 0.00 59.4 45.6 2.1 N | 8 9.0 263 -91 3.7 54.4 3.7
2/21/21 - 1800 68.8 65.8 12 13.2 0.00 59.2 45.6 3.8 N | 5 12.4 262 -89 5.7 60.4 3.7
2/21/21 - 1700 70.4 68.7 11 13.4 0.00 59.0 45.5 3.9 N | 4 12.3 262 28 5.2 63.7 3.8
2/21/21 - 1600 71.6 70.2 11 13.1 0.00 58.7 45.4 4.2 N | 6 11.5 262 180 6.1 65.2 3.7
2/21/21 - 1500 71.6 70.3 11 13.7 0.00 58.4 45.3 4.8 N | 7 14.1 262 306 7.3 66.0 3.8
2/21/21 - 1400 71.8 70.1 11 14.6 0.00 58.0 45.2 4.3 N | 0 12.4 261 394 8.3 66.1 3.7
2/21/21 - 1300 72.1 68.2 12 14.9 0.00 57.7 45.1 4.0 N | 352 11.4 262 447 6.9 65.8 3.7
2/21/21 - 1200 68.9 66.6 13 16.1 0.00 57.7 45.0 4.1 N | 1 11.8 262 440 6.7 66.3 3.7
2/21/21 - 1100 66.9 64.4 15 16.7 0.00 57.8 44.9 4.5 N | 6 15.2 262 389 5.1 64.0 3.7
2/21/21 - 1000 65.5 60.9 17 17.3 0.00 57.9 44.9 3.7 N | 2 13.2 262 297 5.7 61.3 3.7
2/21/21 - 0900 61.0 57.2 20 18.2 0.00 58.0 45.1 3.5 N | 11 9.1 262 190 7.0 55.4 3.7
2/21/21 - 0800 57.4 52.8 24 18.8 0.00 58.1 45.1 2.2 NNE | 24 9.1 264 -20 5.3 47.8 3.7
2/21/21 - 0700 53.3 52.6 27 19.6 0.00 58.2 45.2 2.4 NNE | 18 10.0 265 -77 5.5 45.2 3.7
2/21/21 - 0600 54.8 53.0 26 19.6 0.00 58.3 45.2 3.7 N | 7 11.8 265 -84 6.8 46.2 3.7
2/21/21 - 0500 54.2 53.1 28 21.6 0.00 58.5 45.3 4.4 N | 7 12.1 265 -84 6.5 45.9 3.7
2/21/21 - 0400 53.4 52.8 31 23.4 0.00 58.6 45.3 2.8 N | 352 8.6 266 -83 5.4 44.3 3.7
2/21/21 - 0300 53.6 53.0 30 23.0 0.00 58.5 45.4 2.3 NNW | 347 9.0 265 -82 6.0 45.7 3.7
2/21/21 - 0200 54.6 52.8 29 22.0 0.00 58.9 45.5 2.2 NNW | 346 7.4 265 -82 6.3 46.1 3.7
2/21/21 - 0100 54.1 52.6 29 22.2 0.00 58.7 45.5 1.9 NNW | 335 8.2 265 -82 7.1 45.9 3.7
2/21/21 - 0000 53.2 52.2 31 23.0 0.00 60.9 45.5 1.8 NNW | 338 5.5 266 -81 5.6 45.4 3.7
2/20/21 - 2300 52.9 51.6 34 25.0 0.00 61.4 45.5 2.0 WNW | 285 4.8 266 -79 3.8 44.8 3.7
2/20/21 - 2200 54.2 52.2 35 26.2 0.00 61.3 45.6 1.0 NNW | 332 5.2 266 -82 5.2 46.5 3.7
2/20/21 - 2100 54.7 54.0 33 26.0 0.00 61.3 45.6 3.5 N | 6 10.5 266 -83 3.4 46.7 3.7
2/20/21 - 2000 55.1 54.4 32 25.7 0.00 60.7 45.6 3.0 NNE | 12 8.1 265 -84 3.6 46.7 3.7
2/20/21 - 1900 56.4 54.7 31 25.7 0.00 60.4 45.6 2.3 NNE | 16 8.6 265 -86 3.5 48.9 3.7
2/20/21 - 1800 58.9 56.2 28 24.3 0.00 59.9 45.7 3.5 N | 1 11.6 264 -83 6.1 54.1 3.7
2/20/21 - 1700 62.2 58.9 20 20.0 0.00 59.6 45.7 4.4 N | 2 14.4 264 32 6.7 57.4 3.7
2/20/21 - 1600 62.4 61.2 21 21.6 0.00 59.4 45.6 4.3 N | 357 13.5 263 188 7.4 59.1 3.7
2/20/21 - 1500 63.2 60.9 23 23.5 0.00 59.1 45.5 5.5 N | 8 14.8 264 311 9.2 61.2 3.7
2/20/21 - 1400 63.4 60.4 24 25.0 0.00 59.1 45.5 3.8 N | 354 13.4 263 398 6.7 60.9 3.7
2/20/21 - 1300 61.0 59.0 30 28.4 0.00 59.0 45.3 5.3 N | 5 15.9 264 452 7.2 59.4 3.7
2/20/21 - 1200 60.0 57.0 34 30.2 0.00 58.6 45.3 6.0 N | 5 16.2 264 448 8.2 59.1 3.7
2/20/21 - 1100 58.6 56.9 38 32.1 0.00 57.9 45.2 5.0 N | 3 16.4 264 391 8.0 57.8 3.7
2/20/21 - 1000 58.9 56.9 42 34.9 0.00 58.1 45.3 3.6 N | 359 13.7 264 298 6.0 56.9 3.7
2/20/21 - 0900 58.3 50.6 46 35.8 0.00 58.0 45.3 1.8 NNE | 33 7.5 265 192 4.9 51.2 3.7
2/20/21 - 0800 50.7 40.3 65 33.1 0.00 58.2 45.4 1.6 SE | 138 5.0 269 -5 4.4 38.5 3.7
2/20/21 - 0700 40.4 38.2 74 31.8 0.00 58.5 45.5 0.4 SE | 144 3.3 270 -52 1.8 30.8 3.7
2/20/21 - 0600 41.1 38.5 73 31.7 0.00 58.8 45.5 0.7 S | 174 3.5 270 -57 2.2 32.0 3.7
2/20/21 - 0500 41.5 39.4 70 31.6 0.00 59.0 45.6 0.5 SE | 146 3.7 269 -57 2.4 32.4 3.7
2/20/21 - 0400 41.9 40.2 70 31.9 0.00 59.2 45.7 0.7 SSE | 155 2.5 269 -58 1.6 32.6 3.7
2/20/21 - 0300 43.4 41.8 67 32.1 0.00 59.4 45.7 0.3 S | 171 1.4 269 -59 1.0 34.6 3.7
2/20/21 - 0200 44.3 43.3 63 32.1 0.00 59.5 45.8 0.4 SSE | 162 2.4 268 -59 1.4 36.4 3.7
2/20/21 - 0100 45.9 44.1 59 31.7 0.00 59.6 45.9 0.4 SSE | 158 2.0 268 -59 1.6 38.1 3.7
2/20/21 - 0000 47.8 45.7 56 32.0 0.00 59.7 45.9 0.4 SSE | 161 1.6 267 -60 1.3 39.5 3.7
2/19/21 - 2300 49.6 47.6 51 31.3 0.00 59.7 46.0 0.5 S | 174 2.1 267 -60 0.8 41.2 3.7
2/19/21 - 2200 51.4 49.2 49 31.5 0.00 59.6 46.0 0.9 SSE | 166 2.3 267 -62 1.3 42.1 3.7
2/19/21 - 2100 53.9 51.1 44 31.2 0.00 59.7 46.0 0.3 SSE | 154 1.4 266 -63 1.0 45.7 3.7
2/19/21 - 2000 55.8 53.7 39 30.5 0.00 59.4 46.0 0.7 SSE | 163 2.0 266 -67 1.7 49.6 3.7
2/19/21 - 1900 61.7 55.6 34 30.2 0.00 59.4 46.1 0.6 S | 169 1.7 265 -73 1.4 56.6 3.7
2/19/21 - 1800 70.4 61.6 23 27.7 0.00 58.9 46.1 0.4 SE | 139 2.4 264 -77 1.5 65.3 3.7
2/19/21 - 1700 73.5 70.4 19 26.9 0.00 58.7 45.9 1.2 ENE | 58 3.5 262 22 2.8 68.4 3.7
2/19/21 - 1600 74.7 72.7 18 27.0 0.00 58.5 45.8 2.0 NE | 47 4.8 262 168 2.9 70.3 3.7
2/19/21 - 1500 78.5 74.3 15 25.1 0.00 58.1 45.7 2.2 NE | 54 5.3 262 288 3.3 72.1 3.7
2/19/21 - 1400 78.4 73.8 13 21.2 0.00 57.7 45.6 1.5 ENE | 73 5.3 262 374 4.5 72.3 3.7
2/19/21 - 1300 74.8 72.3 13 19.9 0.00 57.6 45.3 1.9 NNE | 14 5.4 262 428 5.0 71.6 3.7
2/19/21 - 1200 72.5 68.9 15 20.8 0.00 57.5 45.2 1.2 NNE | 15 3.4 262 419 3.6 70.7 3.7
2/19/21 - 1100 69.5 64.2 17 20.4 0.00 57.6 45.2 1.0 NNW | 341 4.4 262 372 2.9 65.0 3.7
2/19/21 - 1000 64.4 57.4 22 21.9 0.00 57.8 45.2 0.6 NNW | 332 2.3 262 292 2.8 57.5 3.7
2/19/21 - 0900 57.6 50.1 32 25.2 0.00 57.9 45.4 0.4 NE | 44 1.8 262 185 1.3 42.2 3.7
2/19/21 - 0800 50.3 37.6 51 25.6 0.00 58.2 45.5 0.8 ESE | 112 2.4 267 0 1.3 33.9 3.7
2/19/21 - 0700 37.9 36.4 57 23.4 0.00 58.4 45.6 0.3 S | 188 1.7 267 -50 1.1 33.0 3.7
2/19/21 - 0600 38.2 36.9 57 23.5 0.00 58.5 45.6 0.3 S | 182 1.9 267 -55 0.5 32.5 3.7
2/19/21 - 0500 39.1 37.9 52 22.5 0.00 58.7 45.7 0.1 S | 178 1.0 267 -56 1.1 31.9 3.7
2/19/21 - 0400 40.7 38.7 49 22.1 0.00 58.8 45.8 0.3 SSE | 163 1.3 267 -58 0.0 31.6 3.7
2/19/21 - 0300 42.0 40.2 46 21.8 0.00 59.0 45.8 0.3 SSE | 154 1.5 266 -60 0.0 34.0 3.7
2/19/21 - 0200 43.8 41.0 44 22.0 0.00 59.2 45.9 0.5 SSE | 157 1.8 266 -62 1.0 36.5 3.7
2/19/21 - 0100 47.2 43.6 36 19.8 0.00 59.4 45.9 0.4 SSE | 161 2.1 265 -65 1.7 40.5 3.7
2/19/21 - 0000 52.0 46.8 27 17.7 0.00 59.2 46.0 1.3 S | 184 4.0 264 -73 3.1 42.4 3.7
2/18/21 - 2300 53.2 51.8 23 15.7 0.00 59.4 46.0 3.0 SW | 214 6.9 264 -78 5.2 42.6 3.7
2/18/21 - 2200 53.5 52.6 22 15.7 0.00 59.4 46.1 2.7 SSW | 212 6.1 264 -77 5.2 41.5 3.7
2/18/21 - 2100 54.8 53.0 22 16.3 0.00 59.4 46.1 2.2 SSW | 208 5.3 264 -75 3.5 43.5 3.7
2/18/21 - 2000 56.0 53.1 23 17.6 0.00 59.3 46.1 1.6 SSW | 200 3.9 264 -71 2.7 47.6 3.7
2/18/21 - 1900 61.1 54.5 23 20.2 0.00 59.2 46.1 1.0 SW | 219 4.2 264 -79 3.0 54.3 3.7
2/18/21 - 1800 66.4 61.1 12 9.0 0.00 59.1 46.1 1.4 N | 360 5.8 263 -85 2.4 60.2 3.7
2/18/21 - 1700 68.4 66.4 9 5.6 0.00 58.9 46.1 2.2 N | 351 9.6 262 19 5.3 63.0 3.7
2/18/21 - 1600 69.5 67.8 9 6.7 0.00 58.6 46.0 2.3 NNW | 348 8.9 262 169 6.0 64.6 3.7
2/18/21 - 1500 69.8 67.5 9 6.7 0.00 58.4 45.9 2.8 NNW | 346 8.0 262 292 8.4 64.7 3.7
2/18/21 - 1400 68.4 66.4 9 7.0 0.00 58.2 45.9 3.7 N | 359 10.1 261 380 4.6 64.1 3.7
2/18/21 - 1300 67.6 64.7 10 7.7 0.00 58.0 45.7 3.5 N | 357 9.3 261 432 6.7 63.6 3.7
2/18/21 - 1200 65.7 62.8 11 8.2 0.00 57.8 45.6 4.2 N | 0 15.9 262 426 5.8 63.4 3.7
2/18/21 - 1100 63.1 60.8 12 9.2 0.00 58.0 45.6 5.2 N | 5 15.4 262 375 6.8 60.5 3.7
2/18/21 - 1000 61.0 58.4 14 9.7 0.00 58.1 45.6 4.6 N | 3 12.9 262 288 5.3 57.6 3.7
2/18/21 - 0900 58.6 55.5 15 9.8 0.00 59.4 45.7 4.8 N | 6 12.5 262 162 5.6 50.9 3.7
2/18/21 - 0800 55.6 52.2 17 9.8 0.00 58.3 45.8 3.2 N | 356 11.1 264 -16 6.9 43.7 3.7
2/18/21 - 0700 52.4 51.7 18 9.8 0.00 58.6 45.8 1.6 NW | 323 5.9 264 -77 6.8 40.5 3.7
2/18/21 - 0600 52.5 51.7 18 10.4 0.00 58.6 45.9 1.4 NNW | 330 5.8 264 -81 5.5 41.8 3.7
2/18/21 - 0500 52.3 51.7 19 11.0 0.00 58.8 45.9 1.3 NNW | 338 5.5 264 -80 3.8 41.8 3.7
2/18/21 - 0400 52.5 51.7 19 11.2 0.00 58.9 46.0 1.4 NNW | 342 5.9 264 -80 3.0 40.9 3.7
2/18/21 - 0300 53.5 51.9 19 12.0 0.00 58.9 46.0 1.3 NNW | 340 6.6 264 -80 3.7 43.1 3.7
2/18/21 - 0200 53.9 53.1 21 14.0 0.00 59.2 46.1 1.8 N | 353 6.5 264 -82 3.6 44.3 3.7
2/18/21 - 0100 54.0 53.2 26 19.2 0.00 59.0 46.1 2.2 N | 0 7.2 264 -82 3.9 43.7 3.7
2/18/21 - 0000 54.0 52.6 28 21.2 0.00 59.3 46.2 1.7 N | 351 6.3 265 -81 4.4 44.0 3.7
2/17/21 - 2300 54.5 53.1 26 19.6 0.00 59.1 46.2 1.6 NNW | 347 5.0 265 -81 4.1 44.9 3.7
2/17/21 - 2200 55.3 53.9 23 17.5 0.00 59.4 46.2 2.2 NNE | 18 6.8 264 -81 4.3 45.8 3.7
2/17/21 - 2100 56.6 55.0 20 15.1 0.00 59.2 46.3 1.9 N | 5 7.8 264 -83 4.8 47.2 3.7
2/17/21 - 2000 56.8 56.3 21 17.1 0.00 59.3 46.3 1.7 NNW | 344 6.4 264 -85 4.4 48.2 3.7
2/17/21 - 1900 58.2 56.4 23 20.2 0.00 59.1 46.3 1.4 NW | 320 5.6 264 -87 4.9 49.4 3.7
2/17/21 - 1800 61.2 58.0 20 18.0 0.00 59.0 46.3 2.5 NNW | 342 8.2 264 -85 5.2 56.2 3.7
2/17/21 - 1700 63.6 61.2 18 18.6 0.00 58.7 46.3 3.8 N | 354 10.6 263 22 7.4 60.0 3.7
2/17/21 - 1600 66.3 63.5 17 19.2 0.00 58.5 46.2 4.6 N | 1 13.8 264 172 6.7 63.3 3.7
2/17/21 - 1500 66.6 65.0 16 19.0 0.00 58.2 46.1 4.0 N | 2 11.3 262 294 7.1 65.6 3.7
2/17/21 - 1400 68.3 65.5 16 19.2 0.00 57.9 46.1 4.5 NNE | 13 18.2 262 379 8.8 68.8 3.7
2/17/21 - 1300 68.2 64.5 18 21.4 0.00 57.8 45.9 3.0 N | 349 9.2 262 429 8.4 70.6 3.7
2/17/21 - 1200 65.5 62.6 22 24.9 0.00 60.0 45.8 3.8 N | 4 9.9 264 426 5.5 70.1 3.7
2/17/21 - 1100 63.4 60.3 28 28.3 0.00 60.2 45.8 3.5 N | 1 11.8 264 372 7.1 65.5 3.7
2/17/21 - 1000 61.0 57.7 32 29.5 0.00 60.5 45.8 3.2 N | 7 12.2 264 285 5.6 57.9 3.7
2/17/21 - 0900 57.7 55.1 36 30.1 0.00 60.5 45.9 3.5 N | 11 14.0 265 158 4.4 50.3 3.7
2/17/21 - 0800 55.2 49.3 41 29.3 0.00 60.6 46.0 2.2 E | 80 7.8 267 -9 3.8 41.5 3.7
2/17/21 - 0700 50.7 49.3 46 29.7 0.00 60.2 46.0 2.0 ENE | 74 7.4 268 -69 3.6 37.5 3.7
2/17/21 - 0600 50.2 38.8 56 29.0 0.00 60.0 46.1 1.7 NE | 48 7.4 268 -65 4.1 33.4 3.7
2/17/21 - 0500 40.2 38.5 66 28.8 0.00 59.6 46.1 0.7 S | 173 3.0 269 -65 1.9 33.4 3.7
2/17/21 - 0400 42.6 40.1 60 28.8 0.00 59.4 46.2 0.3 SSE | 164 2.1 269 -67 1.9 35.7 3.7
2/17/21 - 0300 46.3 41.9 55 28.4 0.00 59.3 46.3 0.7 S | 172 2.6 268 -68 1.8 38.6 3.7
2/17/21 - 0200 47.5 45.1 48 27.8 0.00 59.2 46.3 0.9 SSE | 165 2.9 267 -68 1.8 41.6 3.7
2/17/21 - 0100 50.3 45.5 44 27.0 0.00 59.5 46.5 0.8 SSE | 154 2.9 267 -63 1.7 43.6 3.7
2/17/21 - 0000 54.5 49.5 36 25.2 0.00 59.5 46.5 1.0 SE | 146 2.8 266 -59 1.8 44.2 3.7
2/16/21 - 2300 55.0 53.5 31 24.8 0.00 59.2 46.5 1.4 N | 358 5.7 266 -78 6.3 44.6 3.7
2/16/21 - 2200 56.6 53.4 28 22.7 0.00 59.6 46.5 1.5 E | 86 6.0 266 -82 7.0 46.2 3.7
2/16/21 - 2100 57.6 56.3 29 24.7 0.00 59.6 46.6 2.4 NNW | 332 8.2 266 -85 7.0 48.5 3.7
2/16/21 - 2000 57.8 57.0 31 26.8 0.00 59.4 46.6 2.6 N | 349 10.2 266 -85 9.3 50.7 3.7
2/16/21 - 1900 58.8 57.6 34 29.8 0.00 59.5 46.6 3.1 N | 356 11.0 266 -84 6.9 53.6 3.7
2/16/21 - 1800 61.8 58.6 32 29.9 0.00 59.2 46.6 3.5 N | 3 9.5 266 -76 8.1 59.4 3.7
2/16/21 - 1700 64.0 61.7 29 29.8 0.00 59.1 46.5 3.7 N | 1 11.9 264 20 5.1 64.1 3.7
2/16/21 - 1600 66.6 63.9 26 29.3 0.00 58.8 46.5 3.9 N | 2 11.7 264 168 5.4 69.4 3.7
2/16/21 - 1500 68.9 66.0 24 29.4 0.00 58.5 46.3 2.7 NNW | 339 8.5 264 293 6.1 72.2 3.7
2/16/21 - 1400 68.5 66.2 24 29.2 0.00 58.3 46.3 2.2 N | 349 8.2 264 345 7.7 72.2 3.7
2/16/21 - 1300 68.2 65.2 23 28.4 0.00 58.1 46.2 2.1 NNW | 348 10.2 264 361 6.1 72.9 3.7
2/16/21 - 1200 67.2 65.7 25 29.8 0.00 58.2 46.0 2.0 NNW | 347 9.4 264 390 6.1 73.4 3.7
2/16/21 - 1100 66.9 61.1 36 35.9 0.00 58.2 46.0 1.4 WSW | 250 6.5 265 349 4.0 67.9 3.7
2/16/21 - 1000 61.5 56.9 47 38.6 0.00 58.3 46.0 1.8 W | 262 7.1 266 213 5.4 57.8 3.7
2/16/21 - 0900 56.9 48.3 71 43.7 0.00 57.2 46.1 1.9 W | 264 5.4 314 168 4.0 47.8 3.7
2/16/21 - 0800 48.3 42.9 91 42.7 0.00 57.0 46.2 0.5 SE | 136 2.3 372 41 2.0 39.4 3.7
2/16/21 - 0700 44.3 42.3 91 40.8 0.00 58.8 46.2 0.9 SSE | 161 2.7 396 -12 1.7 40.6 3.7
2/16/21 - 0600 46.4 43.9 90 42.4 0.00 59.0 46.3 0.8 SSE | 168 3.1 385 -18 2.2 41.7 3.7
2/16/21 - 0500 47.9 45.1 89 43.5 0.00 58.9 46.3 1.2 SW | 226 5.6 361 -21 3.7 42.0 3.7
2/16/21 - 0400 46.4 44.9 88 42.3 0.00 59.1 46.5 1.1 S | 178 3.0 329 -23 2.7 42.4 3.7
2/16/21 - 0300 47.3 45.2 87 42.8 0.00 59.3 46.5 0.8 S | 177 2.9 289 -26 2.1 43.1 3.7
2/16/21 - 0200 47.5 45.4 89 43.6 0.00 59.3 46.5 0.4 S | 174 2.2 274 -16 2.0 43.2 3.7
2/16/21 - 0100 46.4 45.0 88 42.3 0.00 59.5 46.6 0.5 S | 176 2.2 292 -28 1.1 41.8 3.7
2/16/21 - 0000 47.1 45.6 85 42.2 0.00 59.7 46.6 0.5 SSE | 163 2.0 277 -44 2.3 42.5 3.7
2/15/21 - 2300 48.0 46.6 80 41.3 0.00 59.7 46.7 0.5 SSE | 158 2.7 273 -54 1.8 43.7 3.7
2/15/21 - 2200 48.6 47.3 74 40.2 0.00 59.6 46.7 0.4 S | 185 1.8 271 -53 1.6 45.6 3.7
2/15/21 - 2100 51.4 48.2 67 39.3 0.00 59.8 46.8 0.6 S | 181 2.4 269 -58 1.7 49.1 3.7
2/15/21 - 2000 53.7 50.7 60 38.6 0.00 59.6 46.8 0.3 SSE | 168 2.1 269 -60 1.1 53.6 3.7
2/15/21 - 1900 57.6 53.6 54 39.2 0.00 59.7 46.8 0.7 S | 177 3.5 268 -64 2.1 59.1 3.7
2/15/21 - 1800 61.7 57.5 49 40.7 0.00 59.3 46.8 1.7 SE | 138 4.6 267 -55 2.6 64.1 3.7
2/15/21 - 1700 66.3 61.6 43 40.7 0.00 59.2 46.7 2.5 SSE | 151 7.5 266 22 4.1 69.6 3.7
2/15/21 - 1600 66.9 65.3 43 42.5 0.00 58.9 46.6 2.1 ESE | 123 6.8 266 125 5.2 71.4 3.7
2/15/21 - 1500 67.8 65.8 44 44.3 0.00 58.7 46.5 2.3 ENE | 68 5.1 266 233 3.6 77.0 3.7
2/15/21 - 1400 68.4 65.1 40 41.6 0.00 58.5 46.5 2.0 SE | 133 6.8 266 256 4.6 72.9 3.7
2/15/21 - 1300 66.3 62.6 41 40.1 0.00 58.3 46.3 1.8 S | 180 7.5 265 351 5.5 71.7 3.7
2/15/21 - 1200 63.2 61.4 41 38.1 0.00 58.2 46.3 1.7 ENE | 59 4.5 266 262 3.2 67.9 3.7
2/15/21 - 1100 61.8 57.8 40 35.6 0.00 58.2 46.2 1.7 NE | 36 5.2 265 309 3.0 65.6 3.7
2/15/21 - 1000 58.1 53.7 43 34.2 0.00 58.4 46.2 1.3 NW | 326 4.1 265 255 4.0 57.0 3.7
2/15/21 - 0900 53.9 47.3 53 34.0 0.00 58.7 46.3 0.6 W | 268 3.2 266 105 2.6 46.4 3.7
2/15/21 - 0800 47.4 41.3 68 33.8 0.00 58.6 46.3 0.5 S | 171 1.8 269 -5 1.4 39.1 3.7
2/15/21 - 0700 43.2 41.3 68 32.6 0.00 58.5 46.4 0.1 SSE | 149 1.7 269 -50 1.2 37.9 3.7
2/15/21 - 0600 44.3 42.8 63 31.7 0.00 59.1 46.5 1.0 SSE | 161 2.5 269 -53 2.0 38.0 3.7
2/15/21 - 0500 48.6 44.0 56 30.8 0.00 59.2 46.5 0.5 SSE | 162 2.0 268 -55 1.9 38.9 3.7
2/15/21 - 0400 50.6 45.9 48 29.9 0.00 59.2 46.6 1.4 S | 186 5.0 267 -55 4.3 38.9 3.7
2/15/21 - 0300 47.0 44.4 52 29.0 0.00 59.6 46.7 0.4 SSE | 155 1.8 267 -52 1.9 39.3 3.7
2/15/21 - 0200 50.1 45.9 47 27.8 0.00 59.6 46.7 0.7 SSE | 157 2.4 267 -56 2.4 40.2 3.7
2/15/21 - 0100 50.8 45.7 45 27.3 0.00 59.6 46.7 1.3 S | 174 5.0 267 -58 3.5 41.4 3.7
2/15/21 - 0000 49.9 46.7 43 26.8 0.00 59.8 46.8 0.7 S | 181 4.2 267 -60 2.3 43.4 3.7
2/14/21 - 2300 54.1 49.8 34 24.6 0.00 59.8 46.9 1.3 SSW | 204 4.1 266 -61 3.0 45.4 3.7
2/14/21 - 2200 56.2 52.6 30 24.3 0.00 59.8 46.9 0.9 NNW | 345 5.5 266 -67 3.1 46.6 3.7
2/14/21 - 2100 57.3 55.8 26 22.0 0.00 59.9 46.9 2.7 NNE | 18 7.3 265 -73 4.9 47.2 3.7
2/14/21 - 2000 57.5 56.6 25 21.2 0.00 59.8 47.0 2.3 NNW | 346 8.5 264 -72 3.8 49.2 3.7
2/14/21 - 1900 57.7 56.5 29 25.0 0.00 59.8 47.0 1.6 N | 352 6.3 265 -75 2.8 52.4 3.7
2/14/21 - 1800 60.2 57.6 26 23.6 0.00 59.6 47.0 2.7 N | 358 11.1 265 -72 5.4 57.7 3.7
2/14/21 - 1700 63.0 60.0 23 23.7 0.00 59.4 46.9 3.4 N | 359 11.4 264 26 4.8 63.2 3.7
2/14/21 - 1600 64.2 62.3 22 24.2 0.00 59.2 46.9 3.5 N | 358 13.0 264 155 5.5 65.0 3.7
2/14/21 - 1500 65.6 63.7 21 23.9 0.00 59.1 46.8 3.3 N | 353 10.1 263 282 5.9 67.3 3.7
2/14/21 - 1400 65.8 63.2 20 22.9 0.00 58.9 46.8 3.4 N | 350 11.0 263 316 6.6 69.6 3.7
2/14/21 - 1300 66.4 64.0 19 21.5 0.00 58.4 46.6 2.7 NNW | 344 11.7 263 400 7.7 72.8 3.7
2/14/21 - 1200 64.5 61.7 24 25.1 0.00 58.7 46.5 4.2 N | 4 12.8 264 408 7.6 68.6 3.7
2/14/21 - 1100 62.2 60.3 26 26.5 0.00 58.7 46.5 4.3 N | 358 11.4 264 340 6.1 64.2 3.7
2/14/21 - 1000 61.2 57.9 31 28.4 0.00 58.7 46.5 3.2 N | 352 11.9 264 265 5.7 57.3 3.7
2/14/21 - 0900 58.0 55.0 35 29.2 0.00 58.8 46.6 3.3 NNW | 345 10.4 264 153 8.9 50.1 3.7
2/14/21 - 0800 55.2 53.4 37 28.6 0.00 59.1 46.7 3.1 N | 349 11.5 266 -35 7.3 45.8 3.7
2/14/21 - 0700 54.4 53.6 38 28.8 0.00 59.0 46.7 3.8 N | 7 11.5 267 -76 5.2 45.4 3.7
2/14/21 - 0600 54.7 53.9 38 29.4 0.00 59.3 46.8 3.5 NNW | 347 9.5 267 -80 7.9 45.5 3.7
2/14/21 - 0500 54.8 54.3 39 29.9 0.00 58.4 46.8 3.8 N | 350 11.6 267 -78 11.0 46.6 3.7
2/14/21 - 0400 55.1 54.2 39 30.0 0.00 59.4 46.9 3.0 NNW | 344 11.3 267 -77 6.9 47.7 3.7
2/14/21 - 0300 55.7 54.5 38 29.8 0.00 59.7 46.9 3.1 N | 3 12.2 267 -78 5.6 48.6 3.7
2/14/21 - 0200 56.3 55.2 40 31.9 0.00 59.6 47.0 2.9 NNW | 338 15.2 267 -80 7.8 49.0 3.7
2/14/21 - 0100 56.3 55.8 42 33.3 0.00 59.6 47.0 3.7 NNW | 345 11.6 267 -80 6.5 48.5 3.7
2/14/21 - 0000 57.2 56.0 40 32.3 0.00 59.8 47.0 2.8 NNW | 337 18.2 267 -79 15.0 48.2 3.7
2/13/21 - 2300 57.5 56.1 36 30.3 0.00 59.8 47.1 2.7 NW | 313 14.5 266 -80 10.5 46.6 3.7
2/13/21 - 2200 57.7 52.6 41 32.3 0.00 59.9 47.1 3.6 W | 264 15.3 266 -76 11.9 47.7 3.7
2/13/21 - 2100 56.9 51.7 53 36.9 0.00 59.8 47.1 1.9 S | 170 6.3 268 -73 5.4 49.8 3.7
2/13/21 - 2000 55.5 52.3 64 42.1 0.00 59.9 47.2 1.5 S | 185 6.8 269 -75 4.9 53.3 3.7
2/13/21 - 1900 58.0 55.1 60 42.5 0.00 59.6 47.2 2.2 S | 180 4.8 269 -77 3.4 57.7 3.7
2/13/21 - 1800 62.4 58.0 53 42.8 0.00 59.5 47.1 3.9 SSW | 213 7.5 268 -51 5.6 62.6 3.7
2/13/21 - 1700 65.2 62.0 47 42.7 0.00 59.4 47.1 4.5 SW | 233 9.6 266 47 7.0 67.8 3.7
2/13/21 - 1600 66.9 64.5 43 42.4 0.00 59.0 47.0 3.7 W | 275 9.2 266 171 7.3 73.6 3.7
2/13/21 - 1500 67.3 65.4 41 41.9 0.00 58.8 47.0 2.3 NW | 310 7.7 266 248 7.1 78.6 3.7
2/13/21 - 1400 67.2 63.6 43 42.7 0.00 60.3 46.9 2.8 NW | 307 9.0 266 351 7.0 78.3 3.7
2/13/21 - 1300 66.2 63.0 43 41.8 0.00 59.9 46.8 2.6 W | 260 10.9 266 394 8.8 79.4 3.7
2/13/21 - 1200 63.2 60.9 48 42.3 0.00 58.4 46.7 1.5 N | 7 5.3 266 330 4.4 74.3 3.7
2/13/21 - 1100 61.7 56.5 55 42.0 0.00 58.5 46.7 1.7 SW | 220 5.9 266 304 4.4 68.0 3.7
2/13/21 - 1000 58.2 54.0 59 42.3 0.00 58.6 46.7 1.4 W | 268 5.7 267 267 4.4 59.3 3.7
2/13/21 - 0900 54.6 47.8 68 42.2 0.00 58.7 46.8 0.8 NE | 54 4.5 268 160 3.8 47.3 3.7
2/13/21 - 0800 47.9 42.7 81 38.9 0.00 58.7 46.8 0.5 SSW | 196 2.5 271 -7 1.8 40.7 3.7
2/13/21 - 0700 43.5 42.3 82 37.9 0.00 59.0 46.9 0.4 SSE | 162 1.7 273 -41 2.4 40.1 3.7
2/13/21 - 0600 43.2 42.4 83 38.1 0.00 59.2 46.9 0.5 SSE | 147 3.1 272 -37 2.0 40.1 3.7
2/13/21 - 0500 43.9 42.6 82 38.2 0.00 58.9 47.0 0.3 SSE | 165 2.0 275 -49 2.2 40.4 3.7
2/13/21 - 0400 44.2 42.9 80 37.6 0.00 60.2 47.1 0.5 SSE | 161 2.6 273 -53 1.6 41.6 3.7
2/13/21 - 0300 46.1 44.0 73 37.3 0.00 61.0 47.1 0.6 SE | 146 3.2 271 -56 1.6